createdAt,value
2019-06-20T00:00:48.075Z,20.23
2019-06-20T00:03:16.787Z,21.03
2019-06-20T00:05:45.631Z,20.47
2019-06-20T00:08:14.298Z,20.13
2019-06-20T00:10:43.111Z,20.97
2019-06-20T00:13:11.770Z,22.93
2019-06-20T00:15:40.587Z,22.60
2019-06-20T00:18:09.292Z,22.90
2019-06-20T00:20:38.044Z,23.30
2019-06-20T00:23:06.653Z,22.50
2019-06-20T00:25:35.326Z,23.03
2019-06-20T00:28:04.064Z,23.63
2019-06-20T00:30:32.675Z,25.63
2019-06-20T00:33:01.288Z,24.33
2019-06-20T00:35:29.890Z,25.03
2019-06-20T00:37:58.481Z,22.97
2019-06-20T00:40:27.207Z,24.63
2019-06-20T00:42:55.813Z,23.60
2019-06-20T00:45:25.107Z,24.30
2019-06-20T00:47:53.769Z,25.87
2019-06-20T00:50:22.318Z,24.90
2019-06-20T00:52:50.904Z,24.30
2019-06-20T00:55:19.506Z,26.03
2019-06-20T00:57:48.161Z,27.03
2019-06-20T01:00:17.220Z,26.13
2019-06-20T01:02:45.916Z,25.60
2019-06-20T01:05:15.134Z,24.77
2019-06-20T01:07:45.431Z,26.93
2019-06-20T01:10:14.659Z,25.40
2019-06-20T01:12:43.275Z,23.90
2019-06-20T01:15:12.018Z,23.77
2019-06-20T01:17:40.622Z,24.40
2019-06-20T01:20:10.046Z,22.90
2019-06-20T01:22:38.732Z,23.93
2019-06-20T01:25:08.368Z,24.90
2019-06-20T01:27:38.695Z,23.47
2019-06-20T01:30:09.254Z,22.17
2019-06-20T01:32:37.975Z,22.27
2019-06-20T01:35:09.864Z,21.13
2019-06-20T01:37:38.551Z,21.03
2019-06-20T01:40:07.657Z,21.23
2019-06-20T01:42:36.339Z,19.93
2019-06-20T01:45:09.208Z,20.70
2019-06-20T01:47:37.890Z,20.90
2019-06-20T01:50:07.322Z,18.80
2019-06-20T01:52:35.937Z,19.47
2019-06-20T01:55:05.473Z,20.00
2019-06-20T01:57:34.085Z,20.73
2019-06-20T02:00:02.810Z,19.57
2019-06-20T02:02:31.430Z,20.27
2019-06-20T02:05:00.031Z,20.27
2019-06-20T02:07:28.657Z,21.10
2019-06-20T02:09:57.307Z,20.83
2019-06-20T02:12:25.999Z,21.20
2019-06-20T02:14:54.724Z,23.37
2019-06-20T02:17:23.405Z,26.00
2019-06-20T02:19:52.137Z,24.43
2019-06-20T02:22:20.753Z,27.53
2019-06-20T02:24:49.339Z,24.07
2019-06-20T02:27:18.045Z,24.43
2019-06-20T02:29:46.625Z,24.00
2019-06-20T02:32:15.243Z,23.63
2019-06-20T02:34:43.827Z,23.53
2019-06-20T02:37:12.437Z,24.83
2019-06-20T02:39:41.042Z,23.30
2019-06-20T02:42:09.656Z,22.23
2019-06-20T02:44:38.241Z,23.90
2019-06-20T02:47:06.926Z,25.13
2019-06-20T02:49:35.538Z,23.77
2019-06-20T02:52:04.277Z,23.60
2019-06-20T02:54:32.871Z,24.10
2019-06-20T02:57:01.487Z,23.13
2019-06-20T02:59:30.154Z,22.70
2019-06-20T03:01:58.784Z,22.53
2019-06-20T03:04:27.375Z,22.50
2019-06-20T03:06:55.991Z,21.00
2019-06-20T03:09:24.582Z,23.07
2019-06-20T03:11:53.194Z,22.40
2019-06-20T03:14:21.792Z,22.67
2019-06-20T03:16:50.469Z,22.20
2019-06-20T03:19:19.070Z,23.17
2019-06-20T03:21:47.687Z,23.87
2019-06-20T03:24:16.279Z,22.97
2019-06-20T03:26:44.957Z,23.80
2019-06-20T03:29:13.567Z,23.23
2019-06-20T03:31:43.830Z,25.40
2019-06-20T03:34:12.425Z,23.43
2019-06-20T03:36:41.036Z,24.67
2019-06-20T03:39:09.695Z,24.87
2019-06-20T03:41:38.408Z,26.93
2019-06-20T03:44:07.138Z,24.07
2019-06-20T03:46:35.781Z,25.10
2019-06-20T03:49:04.613Z,25.17
2019-06-20T03:51:33.213Z,27.50
2019-06-20T03:54:01.827Z,25.63
2019-06-20T03:56:30.423Z,25.43
2019-06-20T03:58:59.026Z,26.37
2019-06-20T04:01:27.618Z,28.03
2019-06-20T04:03:56.227Z,28.37
2019-06-20T04:06:24.886Z,27.80
2019-06-20T04:08:53.506Z,30.20
2019-06-20T04:11:22.106Z,30.90
2019-06-20T04:13:50.721Z,31.57
2019-06-20T04:16:19.364Z,32.10
2019-06-20T04:18:47.970Z,34.40
2019-06-20T04:21:16.632Z,33.43
2019-06-20T04:23:45.318Z,35.17
2019-06-20T04:26:13.909Z,35.83
2019-06-20T04:28:42.524Z,34.37
2019-06-20T04:31:11.120Z,33.20
2019-06-20T04:33:39.735Z,34.43
2019-06-20T04:36:08.350Z,33.17
2019-06-20T04:38:37.049Z,33.00
2019-06-20T04:41:05.638Z,33.73
2019-06-20T04:43:34.322Z,34.43
2019-06-20T04:46:10.018Z,35.23
2019-06-20T04:48:38.692Z,34.37
2019-06-20T04:51:07.339Z,33.73
2019-06-20T04:53:35.951Z,34.33
2019-06-20T04:56:05.775Z,35.07
2019-06-20T04:58:34.496Z,33.90
2019-06-20T05:01:03.169Z,36.17
2019-06-20T05:03:31.782Z,35.93
2019-06-20T05:06:00.382Z,34.20
2019-06-20T05:08:29.062Z,34.57
2019-06-20T05:10:57.651Z,33.37
2019-06-20T05:13:26.346Z,34.77
2019-06-20T05:15:54.920Z,33.80
2019-06-20T05:18:23.527Z,32.50
2019-06-20T05:20:52.114Z,33.10
2019-06-20T05:23:20.731Z,32.13
2019-06-20T05:25:49.395Z,31.70
2019-06-20T05:28:18.010Z,32.30
2019-06-20T05:30:47.481Z,31.20
2019-06-20T05:33:16.094Z,33.30
2019-06-20T05:35:44.689Z,33.07
2019-06-20T05:38:13.309Z,32.07
2019-06-20T05:40:41.944Z,31.63
2019-06-20T05:43:10.748Z,32.33
2019-06-20T05:45:39.326Z,31.07
2019-06-20T05:48:07.986Z,30.67
2019-06-20T05:50:36.671Z,31.73
2019-06-20T05:53:05.254Z,32.23
2019-06-20T05:55:34.038Z,30.97
2019-06-20T05:58:02.715Z,31.57
2019-06-20T06:00:31.461Z,34.30
2019-06-20T06:03:00.047Z,35.60
2019-06-20T06:05:28.890Z,34.83
2019-06-20T06:07:58.480Z,35.50
2019-06-20T06:10:27.199Z,37.23
2019-06-20T06:12:55.787Z,36.70
2019-06-20T06:15:24.892Z,37.20
2019-06-20T06:17:53.502Z,38.87
2019-06-20T06:20:22.279Z,38.40
2019-06-20T06:22:50.891Z,38.07
2019-06-20T06:25:19.575Z,36.70
2019-06-20T06:27:48.171Z,37.73
2019-06-20T06:30:16.927Z,38.40
2019-06-20T06:32:45.593Z,37.83
2019-06-20T06:35:14.535Z,34.87
2019-06-20T06:37:43.141Z,36.67
2019-06-20T06:40:13.471Z,34.33
2019-06-20T06:42:42.134Z,30.20
2019-06-20T06:45:12.937Z,29.23
2019-06-20T06:47:41.715Z,28.27
2019-06-20T06:50:11.029Z,28.37
2019-06-20T06:52:39.573Z,29.20
2019-06-20T06:55:08.303Z,31.47
2019-06-20T06:57:36.960Z,30.10
2019-06-20T07:00:10.835Z,30.77
2019-06-20T07:02:39.444Z,31.93
2019-06-20T07:05:08.183Z,31.00
2019-06-20T07:07:36.858Z,30.60
2019-06-20T07:10:07.383Z,32.80
2019-06-20T07:12:35.998Z,32.00
2019-06-20T07:15:07.912Z,31.67
2019-06-20T07:17:36.653Z,31.03
2019-06-20T07:20:06.691Z,31.97
2019-06-20T07:22:35.951Z,33.03
2019-06-20T07:25:07.179Z,31.13
2019-06-20T07:27:36.032Z,31.17
2019-06-20T07:30:06.560Z,31.83
2019-06-20T07:32:35.179Z,28.97
2019-06-20T07:35:06.073Z,29.77
2019-06-20T07:37:34.675Z,27.80
2019-06-20T07:40:07.404Z,25.07
2019-06-20T07:42:36.072Z,22.60
2019-06-20T07:45:09.538Z,20.63
2019-06-20T07:47:38.406Z,22.40
2019-06-20T07:50:08.837Z,22.10
2019-06-20T07:52:37.581Z,19.53
2019-06-20T07:55:09.346Z,19.73
2019-06-20T07:57:38.150Z,20.53
2019-06-20T08:00:13.542Z,22.03
2019-06-20T08:02:42.346Z,23.03
2019-06-20T08:05:12.051Z,24.93
2019-06-20T08:07:40.730Z,23.07
2019-06-20T08:10:13.663Z,24.27
2019-06-20T08:12:42.346Z,24.50
2019-06-20T08:15:15.529Z,24.30
2019-06-20T08:17:42.053Z,22.50
2019-06-20T08:20:13.190Z,23.70
2019-06-20T08:22:41.878Z,22.23
2019-06-20T08:25:11.213Z,23.43
2019-06-20T08:27:52.621Z,22.53
2019-06-20T08:30:24.241Z,25.20
2019-06-20T08:32:52.969Z,27.03
2019-06-20T08:35:23.103Z,28.67
2019-06-20T08:37:52.647Z,30.47
2019-06-20T08:40:23.589Z,30.57
2019-06-20T08:42:52.513Z,30.97
2019-06-20T08:45:23.201Z,30.57
2019-06-20T08:47:58.364Z,29.53
2019-06-20T08:50:27.855Z,29.07
2019-06-20T08:52:57.993Z,28.27
2019-06-20T08:55:26.901Z,27.33
2019-06-20T08:57:56.247Z,27.53
2019-06-20T09:00:26.684Z,27.33
2019-06-20T09:02:56.571Z,25.80
2019-06-20T09:05:26.200Z,24.77
2019-06-20T09:07:56.562Z,24.00
2019-06-20T09:10:28.327Z,24.00
2019-06-20T09:12:57.126Z,24.80
2019-06-20T09:15:25.801Z,22.73
2019-06-20T09:17:55.268Z,22.00
2019-06-20T09:20:24.908Z,21.60
2019-06-20T09:22:54.014Z,23.57
2019-06-20T09:25:23.863Z,21.77
2019-06-20T09:27:54.102Z,21.93
2019-06-20T09:30:24.200Z,23.07
2019-06-20T09:32:53.864Z,23.37
2019-06-20T09:35:22.644Z,26.33
2019-06-20T09:37:51.976Z,25.17
2019-06-20T09:40:22.100Z,25.30
2019-06-20T09:42:51.685Z,25.97
2019-06-20T09:45:21.203Z,24.60
2019-06-20T09:47:50.980Z,23.97
2019-06-20T09:50:20.538Z,21.43
2019-06-20T09:52:51.330Z,20.17
2019-06-20T09:55:19.629Z,19.60
2019-06-20T09:57:49.100Z,18.40
2019-06-20T10:00:21.482Z,19.80
2019-06-20T10:02:51.797Z,18.93
2019-06-20T10:05:20.742Z,16.83
2019-06-20T10:07:50.318Z,15.83
2019-06-20T10:10:19.501Z,15.47
2019-06-20T10:12:49.583Z,14.87
2019-06-20T10:15:27.318Z,14.53
2019-06-20T10:17:56.057Z,11.47
2019-06-20T10:20:25.481Z,11.63
2019-06-20T10:22:54.538Z,18.23
2019-06-20T10:25:23.539Z,12.50
2019-06-20T10:27:53.586Z,12.57
2019-06-20T10:30:23.851Z,12.03
2019-06-20T10:32:53.186Z,13.00
2019-06-20T10:35:23.083Z,11.37
2019-06-20T10:37:53.021Z,11.27
2019-06-20T10:40:22.195Z,10.10
2019-06-20T10:42:50.800Z,11.43
2019-06-20T10:45:21.498Z,9.37
2019-06-20T10:47:50.938Z,10.20
2019-06-20T10:50:20.297Z,10.00
2019-06-20T10:52:50.067Z,9.60
2019-06-20T10:55:19.890Z,9.40
2019-06-20T10:57:49.843Z,10.30
2019-06-20T11:00:30.215Z,9.57
2019-06-20T11:02:49.463Z,10.00
2019-06-20T11:05:18.431Z,8.93
2019-06-20T11:07:47.614Z,7.90
2019-06-20T11:10:16.984Z,7.60
2019-06-20T11:12:52.445Z,7.17
2019-06-20T11:15:17.026Z,8.20
2019-06-20T11:17:46.314Z,9.13
2019-06-20T11:20:15.428Z,8.00
2019-06-20T11:22:45.294Z,9.20
2019-06-20T11:25:14.501Z,9.10
2019-06-20T11:27:43.215Z,7.50
2019-06-20T11:30:14.706Z,7.27
2019-06-20T11:32:43.531Z,7.17
2019-06-20T11:35:12.530Z,7.37
2019-06-20T11:37:42.268Z,5.93
2019-06-20T11:40:12.789Z,6.23
2019-06-20T11:42:41.957Z,6.17
2019-06-20T11:45:11.006Z,6.03
2019-06-20T11:47:40.498Z,5.23
2019-06-20T11:50:10.338Z,5.13
2019-06-20T11:52:42.423Z,5.07
2019-06-20T11:55:09.823Z,4.93
2019-06-20T11:57:38.437Z,5.40
2019-06-20T12:00:08.667Z,5.67
2019-06-20T12:02:37.326Z,5.30
2019-06-20T12:05:10.383Z,6.10
2019-06-20T12:07:40.136Z,6.30
2019-06-20T12:10:11.492Z,5.87
2019-06-20T12:12:41.018Z,6.17
2019-06-20T12:15:11.944Z,6.57
2019-06-20T12:17:41.763Z,6.53
2019-06-20T12:20:11.399Z,6.07
2019-06-20T12:22:41.763Z,5.60
2019-06-20T12:25:12.629Z,5.80
2019-06-20T12:27:42.966Z,6.10
2019-06-20T12:30:14.095Z,6.67
2019-06-20T12:32:42.707Z,6.00
2019-06-20T12:35:11.746Z,5.80
2019-06-20T12:37:40.575Z,6.60
2019-06-20T12:40:09.755Z,7.03
2019-06-20T12:42:40.951Z,7.17
2019-06-20T12:45:09.505Z,6.93
2019-06-20T12:47:38.801Z,6.23
2019-06-20T12:50:08.879Z,6.73
2019-06-20T12:52:37.866Z,7.17
2019-06-20T12:55:07.682Z,7.60
2019-06-20T12:57:38.491Z,6.93
2019-06-20T13:00:08.257Z,6.93
2019-06-20T13:02:36.915Z,7.50
2019-06-20T13:05:09.994Z,8.67
2019-06-20T13:07:39.228Z,7.43
2019-06-20T13:10:09.309Z,8.40
2019-06-20T13:12:37.983Z,7.90
2019-06-20T13:15:07.140Z,7.47
2019-06-20T13:17:35.878Z,6.97
2019-06-20T13:20:06.228Z,7.70
2019-06-20T13:22:34.878Z,6.60
2019-06-20T13:25:04.817Z,7.20
2019-06-20T13:27:33.403Z,6.43
2019-06-20T13:30:02.036Z,6.93
2019-06-20T13:32:30.589Z,7.20
2019-06-20T13:34:59.219Z,7.20
2019-06-20T13:37:27.799Z,6.67
2019-06-20T13:39:56.409Z,8.10
2019-06-20T13:42:25.027Z,7.83
2019-06-20T13:44:53.638Z,7.63
2019-06-20T13:47:22.222Z,7.30
2019-06-20T13:49:51.420Z,7.93
2019-06-20T13:52:20.008Z,7.40
2019-06-20T13:54:49.830Z,9.10
2019-06-20T13:57:18.563Z,8.60
2019-06-20T13:59:47.641Z,8.87
2019-06-20T14:02:16.486Z,8.70
2019-06-20T14:04:46.459Z,8.80
2019-06-20T14:07:15.628Z,9.07
2019-06-20T14:09:44.672Z,8.27
2019-06-20T14:12:13.532Z,7.73
2019-06-20T14:14:43.660Z,8.30
2019-06-20T14:17:12.533Z,7.43
2019-06-20T14:19:42.174Z,8.60
2019-06-20T14:22:11.370Z,8.67
2019-06-20T14:24:39.987Z,8.43
2019-06-20T14:27:08.587Z,9.60
2019-06-20T14:29:37.200Z,9.07
2019-06-20T14:32:18.793Z,9.00
2019-06-20T14:34:36.113Z,9.43
2019-06-20T14:37:04.850Z,9.13
2019-06-20T14:39:34.248Z,8.80
2019-06-20T14:42:02.883Z,8.57
2019-06-20T14:44:31.507Z,8.40
2019-06-20T14:47:00.078Z,8.30
2019-06-20T14:49:28.695Z,8.97
2019-06-20T14:51:57.603Z,9.77
2019-06-20T14:54:26.321Z,8.83
2019-06-20T14:56:58.077Z,9.80
2019-06-20T14:59:25.219Z,9.87
2019-06-20T15:01:53.814Z,10.50
2019-06-20T15:04:22.455Z,9.90
2019-06-20T15:06:52.322Z,10.17
2019-06-20T15:09:20.956Z,9.90
2019-06-20T15:11:53.237Z,9.47
2019-06-20T15:14:21.851Z,9.17
2019-06-20T15:16:51.278Z,8.77
2019-06-20T15:19:19.995Z,8.50
2019-06-20T15:21:49.874Z,8.73
2019-06-20T15:24:19.702Z,8.27
2019-06-20T15:26:50.666Z,7.83
2019-06-20T15:29:23.287Z,7.37
2019-06-20T15:31:52.654Z,7.60
2019-06-20T15:34:21.225Z,7.67
2019-06-20T15:36:51.368Z,7.87
2019-06-20T15:39:20.033Z,7.90
2019-06-20T15:41:49.959Z,8.67
2019-06-20T15:44:18.635Z,7.87
2019-06-20T15:46:48.317Z,8.53
2019-06-20T15:49:17.429Z,7.37
2019-06-20T15:51:46.024Z,7.53
2019-06-20T15:54:14.610Z,6.97
2019-06-20T15:56:43.215Z,6.67
2019-06-20T15:59:11.811Z,5.93
2019-06-20T16:01:40.394Z,5.63
2019-06-20T16:04:08.975Z,5.57
2019-06-20T16:06:37.574Z,5.80
2019-06-20T16:09:09.107Z,5.90
2019-06-20T16:11:37.292Z,6.77
2019-06-20T16:14:05.956Z,6.83
2019-06-20T16:16:34.937Z,6.37
2019-06-20T16:19:03.533Z,6.73
2019-06-20T16:21:32.146Z,6.63
2019-06-20T16:24:00.736Z,5.73
2019-06-20T16:26:29.356Z,6.20
2019-06-20T16:28:57.937Z,6.30
2019-06-20T16:31:27.330Z,6.80
2019-06-20T16:33:55.986Z,6.57
2019-06-20T16:36:24.674Z,6.70
2019-06-20T16:38:53.319Z,6.07
2019-06-20T16:41:21.927Z,5.77
2019-06-20T16:43:50.517Z,6.10
2019-06-20T16:46:19.135Z,6.33
2019-06-20T16:48:47.804Z,5.90
2019-06-20T16:51:16.401Z,6.87
2019-06-20T16:53:44.999Z,7.60
2019-06-20T16:56:13.668Z,7.10
2019-06-20T16:58:42.247Z,7.43
2019-06-20T17:01:10.861Z,7.60
2019-06-20T17:03:41.997Z,7.93
2019-06-20T17:06:09.765Z,8.20
2019-06-20T17:08:38.452Z,9.00
2019-06-20T17:11:07.268Z,8.60
2019-06-20T17:13:35.850Z,9.17
2019-06-20T17:16:04.545Z,8.70
2019-06-20T17:18:33.161Z,8.77
2019-06-20T17:21:01.765Z,10.60
2019-06-20T17:23:30.498Z,9.07
2019-06-20T17:26:01.424Z,9.27
2019-06-20T17:28:29.367Z,8.73
2019-06-20T17:30:58.075Z,8.57
2019-06-20T17:33:26.619Z,8.60
2019-06-20T17:35:55.235Z,8.40
2019-06-20T17:38:23.889Z,8.03
2019-06-20T17:40:52.499Z,7.63
2019-06-20T17:43:21.087Z,7.70
2019-06-20T17:45:49.704Z,7.87
2019-06-20T17:48:18.302Z,8.13
2019-06-20T17:50:46.896Z,7.53
2019-06-20T17:53:15.474Z,7.10
2019-06-20T17:55:44.091Z,8.07
2019-06-20T17:58:12.672Z,7.50
2019-06-20T18:00:41.347Z,7.77
2019-06-20T18:03:10.002Z,7.10
2019-06-20T18:05:38.671Z,7.37
2019-06-20T18:08:15.070Z,7.63
2019-06-20T18:10:37.842Z,7.60
2019-06-20T18:13:06.490Z,7.57
2019-06-20T18:15:35.105Z,7.53
2019-06-20T18:18:03.758Z,7.60
2019-06-20T18:20:32.366Z,6.97
2019-06-20T18:23:01.027Z,6.43
2019-06-20T18:25:31.779Z,5.97
2019-06-20T18:27:59.938Z,6.80
2019-06-20T18:30:34.329Z,6.80
2019-06-20T18:33:02.939Z,7.03
2019-06-20T18:35:31.543Z,7.07
2019-06-20T18:38:00.129Z,6.90
2019-06-20T18:40:28.749Z,7.73
2019-06-20T18:42:57.332Z,7.03
2019-06-20T18:45:25.948Z,7.87
2019-06-20T18:47:54.547Z,7.90
2019-06-20T18:50:23.298Z,8.27
2019-06-20T18:52:52.823Z,8.00
2019-06-20T18:55:21.541Z,8.57
2019-06-20T18:57:50.293Z,8.30
2019-06-20T19:00:33.537Z,8.97
2019-06-20T19:02:49.773Z,8.13
2019-06-20T19:05:18.441Z,8.53
2019-06-20T19:07:47.109Z,9.10
2019-06-20T19:10:18.780Z,8.47
2019-06-20T19:12:47.382Z,9.07
2019-06-20T19:15:16.409Z,8.77
2019-06-20T19:17:45.019Z,8.70
2019-06-20T19:20:14.071Z,8.40
2019-06-20T19:22:42.745Z,7.90
2019-06-20T19:25:11.878Z,7.23
2019-06-20T19:27:46.132Z,6.97
2019-06-20T19:30:13.729Z,7.20
2019-06-20T19:32:42.471Z,7.90
2019-06-20T19:35:11.598Z,6.80
2019-06-20T19:37:40.352Z,6.90
2019-06-20T19:40:10.871Z,7.30
2019-06-20T19:42:39.483Z,7.50
2019-06-20T19:45:11.216Z,6.37
2019-06-20T19:47:40.350Z,7.67
2019-06-20T19:50:09.671Z,8.17
2019-06-20T19:52:38.451Z,8.40
2019-06-20T19:55:07.271Z,8.17
2019-06-20T19:57:36.027Z,9.87
2019-06-20T20:00:07.258Z,9.97
2019-06-20T20:02:35.951Z,10.00
2019-06-20T20:05:18.621Z,10.73
2019-06-20T20:07:37.983Z,11.67
2019-06-20T20:10:08.523Z,11.70
2019-06-20T20:12:37.170Z,11.47
2019-06-20T20:15:08.871Z,11.73
2019-06-20T20:17:37.474Z,12.30
2019-06-20T20:20:09.278Z,12.17
2019-06-20T20:22:37.894Z,12.60
2019-06-20T20:25:08.121Z,11.80
2019-06-20T20:27:36.869Z,12.57
2019-06-20T20:30:11.863Z,12.60
2019-06-20T20:32:40.617Z,13.20
2019-06-20T20:35:09.861Z,13.20
2019-06-20T20:37:38.629Z,13.83
2019-06-20T20:40:11.098Z,13.60
2019-06-20T20:42:39.781Z,12.03
2019-06-20T20:45:09.511Z,14.37
2019-06-20T20:47:38.307Z,14.10
2019-06-20T20:50:08.635Z,13.77
2019-06-20T20:52:37.378Z,14.17
2019-06-20T20:55:07.616Z,15.57
2019-06-20T20:57:36.236Z,15.03
2019-06-20T21:00:16.729Z,14.57
2019-06-20T21:02:45.400Z,15.73
2019-06-20T21:05:13.989Z,15.97
2019-06-20T21:07:42.605Z,15.90
2019-06-20T21:10:14.011Z,16.03
2019-06-20T21:12:42.685Z,15.93
2019-06-20T21:15:11.458Z,15.23
2019-06-20T21:17:40.111Z,16.47
2019-06-20T21:20:09.146Z,16.17
2019-06-20T21:22:37.895Z,15.83
2019-06-20T21:25:07.731Z,16.80
2019-06-20T21:27:36.421Z,16.90
2019-06-20T21:30:09.765Z,17.27
2019-06-20T21:32:38.374Z,17.63
2019-06-20T21:35:07.922Z,17.87
2019-06-20T21:37:36.531Z,17.77
2019-06-20T21:40:06.758Z,17.13
2019-06-20T21:42:35.381Z,17.73
2019-06-20T21:45:06.513Z,17.17
2019-06-20T21:47:35.113Z,18.43
2019-06-20T21:50:05.254Z,16.87
2019-06-20T21:52:33.941Z,17.97
2019-06-20T21:55:02.699Z,17.63
2019-06-20T21:57:31.307Z,18.00
2019-06-20T21:59:59.919Z,17.33
2019-06-20T22:02:28.606Z,16.63
2019-06-20T22:04:57.189Z,17.50
2019-06-20T22:07:25.815Z,17.67
2019-06-20T22:09:54.448Z,17.23
2019-06-20T22:12:23.058Z,17.70
2019-06-20T22:14:51.651Z,16.80
2019-06-20T22:17:20.279Z,17.00
2019-06-20T22:19:48.863Z,16.70
2019-06-20T22:22:17.554Z,16.97
2019-06-20T22:24:46.176Z,18.33
2019-06-20T22:27:14.734Z,18.10
2019-06-20T22:29:43.354Z,18.50
2019-06-20T22:32:11.954Z,18.17
2019-06-20T22:34:40.569Z,18.17
2019-06-20T22:37:09.164Z,17.43
2019-06-20T22:39:37.765Z,17.77
2019-06-20T22:42:06.424Z,18.60
2019-06-20T22:44:35.034Z,19.83
2019-06-20T22:47:03.782Z,18.93
2019-06-20T22:49:32.411Z,19.67
2019-06-20T22:52:01.002Z,19.50
2019-06-20T22:54:29.619Z,19.33
2019-06-20T22:56:58.215Z,20.33
2019-06-20T22:59:26.831Z,20.03
2019-06-20T23:01:55.559Z,19.83
2019-06-20T23:04:24.170Z,20.47
2019-06-20T23:06:56.769Z,20.40
2019-06-20T23:09:23.081Z,20.13
2019-06-20T23:11:51.684Z,20.43
2019-06-20T23:14:20.282Z,21.87
2019-06-20T23:16:48.883Z,20.90
2019-06-20T23:19:17.503Z,22.20
2019-06-20T23:21:46.095Z,23.17
2019-06-20T23:24:14.718Z,23.20
2019-06-20T23:26:43.333Z,22.40
2019-06-20T23:29:23.576Z,22.47
2019-06-20T23:31:53.089Z,23.73
2019-06-20T23:34:21.944Z,25.37
2019-06-20T23:36:50.686Z,25.37
2019-06-20T23:39:19.365Z,25.43
2019-06-20T23:41:48.034Z,26.27
2019-06-20T23:44:16.660Z,26.77
2019-06-20T23:46:45.313Z,26.93
2019-06-20T23:49:14.231Z,26.63
2019-06-20T23:51:50.264Z,28.27
2019-06-20T23:54:18.878Z,27.53
2019-06-20T23:56:47.606Z,27.57
2019-06-20T23:59:16.214Z,28.37
